PWSweather.com
Personal Weather Stations
Station Observations
KMNGREYC2
Grey Cloud Island, Grey Cloud Island, MN 55071

Grey Cloud IslandGrey Cloud Island, MN 55071

Lat: 44.799333, Lon: -92.987851

Elevation: 700

Station Type: Davis VP2

www.jagielski.com/weather/conditions.htm

High Low Average
Temperature 72.6°F22.6°C 60.5°F15.8°C 67.5°F19.7°C
Dew Point 69.8°F21.0°C 58.3°F14.6°C 64.5°F18.1°C
Winds 7.0 mph 11.3 kmh Calm Calm 1.0 mph SW1.6 kmh SW
Wind Gusts 29.0 mph46.7 kmh -- 4.0 mph6.4 kmh
Humidity 98% 78% 90%
Pressure 29.82 in1009.8 mb 29.53 in1000.0 mb -
Precipitation 0.00 in0.0 mm - -
Hour Temp Dew Point Humidity Winds Wind Gusts Pressure Precip Precip Rate Daily Precip Total
12:00 AM 73.0°F22.8°C 68.9°F20.5°C 87% 4.0 mph S6.4 kmh S 5.0 mph8.0 kmh 29.74 in1007.1 mb 0.00 in0.0 mm 0.00 in0.0 mm 0.00 in0.0 mm
12:15 AM 72.9°F22.7°C 68.8°F20.4°C 87% Calm Calm 7.0 mph11.3 kmh 29.74 in1007.1 mb 0.00 in0.0 mm 0.00 in0.0 mm 0.00 in0.0 mm
12:30 AM 72.7°F22.6°C 68.3°F20.2°C 86% Calm Calm 1.0 mph1.6 kmh 29.74 in1007.1 mb 0.00 in0.0 mm 0.00 in0.0 mm 0.00 in0.0 mm
12:45 AM 72.6°F22.6°C 68.2°F20.1°C 86% Calm Calm 2.0 mph3.2 kmh 29.74 in1007.1 mb 0.00 in0.0 mm 0.00 in0.0 mm 0.00 in0.0 mm
01:00 AM 72.6°F22.6°C 68.5°F20.3°C 87% Calm Calm -- 29.73 in1006.8 mb 0.00 in0.0 mm 0.00 in0.0 mm 0.00 in0.0 mm
01:15 AM 72.3°F22.4°C 67.9°F19.9°C 86% Calm Calm 6.0 mph9.7 kmh 29.74 in1007.1 mb 0.00 in0.0 mm 0.00 in0.0 mm 0.00 in0.0 mm
01:30 AM 72.1°F22.3°C 68.0°F20.0°C 87% Calm Calm -- 29.74 in1007.1 mb 0.00 in0.0 mm 0.00 in0.0 mm 0.00 in0.0 mm
01:45 AM 71.9°F22.2°C 67.8°F19.9°C 87% Calm Calm 1.0 mph1.6 kmh 29.74 in1007.1 mb 0.00 in0.0 mm 0.00 in0.0 mm 0.00 in0.0 mm
02:00 AM 71.7°F22.1°C 67.6°F19.8°C 87% Calm Calm 1.0 mph1.6 kmh 29.73 in1006.8 mb 0.00 in0.0 mm 0.00 in0.0 mm 0.00 in0.0 mm
02:15 AM 71.3°F21.8°C 67.6°F19.8°C 88% Calm Calm 1.0 mph1.6 kmh 29.73 in1006.8 mb 0.00 in0.0 mm 0.00 in0.0 mm 0.00 in0.0 mm
02:30 AM 71.0°F21.7°C 67.9°F19.9°C 90% Calm Calm -- 29.73 in1006.8 mb 0.00 in0.0 mm 0.00 in0.0 mm 0.00 in0.0 mm
02:45 AM 70.5°F21.4°C 67.4°F19.7°C 90% Calm Calm -- 29.71 in1006.1 mb 0.00 in0.0 mm 0.00 in0.0 mm 0.00 in0.0 mm
03:00 AM 70.2°F21.2°C 67.5°F19.7°C 91% Calm Calm -- 29.71 in1006.1 mb 0.01 in0.3 mm 0.01 in0.3 mm 0.01 in0.3 mm
03:15 AM 69.9°F21.1°C 67.2°F19.6°C 91% Calm Calm -- 29.71 in1006.1 mb 0.01 in0.3 mm 0.00 in0.0 mm 0.01 in0.3 mm
03:30 AM 69.7°F20.9°C 67.3°F19.6°C 92% Calm Calm 4.0 mph6.4 kmh 29.72 in1006.4 mb 0.01 in0.3 mm 0.00 in0.0 mm 0.01 in0.3 mm
03:45 AM 69.6°F20.9°C 67.2°F19.6°C 92% Calm Calm 4.0 mph6.4 kmh 29.71 in1006.1 mb 0.01 in0.3 mm 0.00 in0.0 mm 0.01 in0.3 mm
04:00 AM 69.6°F20.9°C 67.5°F19.7°C 93% 1.0 mph S1.6 kmh S 1.0 mph1.6 kmh 29.71 in1006.1 mb 0.00 in0.0 mm 0.00 in0.0 mm 0.01 in0.3 mm
04:15 AM 69.5°F20.8°C 67.4°F19.7°C 93% Calm Calm 3.0 mph4.8 kmh 29.71 in1006.1 mb 0.00 in0.0 mm 0.00 in0.0 mm 0.01 in0.3 mm
04:30 AM 69.5°F20.8°C 67.7°F19.8°C 94% Calm Calm -- 29.69 in1005.4 mb 0.02 in0.5 mm 0.08 in2.0 mm 0.03 in0.8 mm
04:45 AM 69.4°F20.8°C 67.6°F19.8°C 94% Calm Calm 1.0 mph1.6 kmh 29.68 in1005.1 mb 0.02 in0.5 mm 0.00 in0.0 mm 0.03 in0.8 mm
05:00 AM 69.3°F20.7°C 67.5°F19.7°C 94% Calm Calm -- 29.67 in1004.7 mb 0.03 in0.8 mm 0.01 in0.3 mm 0.04 in1.0 mm
05:15 AM 69.1°F20.6°C 67.6°F19.8°C 95% Calm Calm 2.0 mph3.2 kmh 29.66 in1004.4 mb 0.03 in0.8 mm 0.00 in0.0 mm 0.04 in1.0 mm
05:30 AM 69.0°F20.6°C 67.5°F19.7°C 95% Calm Calm -- 29.65 in1004.1 mb 0.01 in0.3 mm 0.00 in0.0 mm 0.04 in1.0 mm
05:45 AM 68.9°F20.5°C 67.4°F19.7°C 95% Calm Calm -- 29.65 in1004.1 mb 0.01 in0.3 mm 0.00 in0.0 mm 0.04 in1.0 mm
06:00 AM 68.7°F20.4°C 67.2°F19.6°C 95% Calm Calm -- 29.64 in1003.7 mb 0.01 in0.3 mm 0.00 in0.0 mm 0.04 in1.0 mm
06:15 AM 68.7°F20.4°C 67.2°F19.6°C 95% Calm Calm -- 29.64 in1003.7 mb 0.01 in0.3 mm 0.00 in0.0 mm 0.04 in1.0 mm
06:30 AM 68.7°F20.4°C 67.5°F19.7°C 96% Calm Calm -- 29.64 in1003.7 mb 0.01 in0.3 mm 0.00 in0.0 mm 0.04 in1.0 mm
06:45 AM 68.8°F20.4°C 67.6°F19.8°C 96% Calm Calm 2.0 mph3.2 kmh 29.63 in1003.4 mb 0.01 in0.3 mm 0.00 in0.0 mm 0.04 in1.0 mm
07:00 AM 69.0°F20.6°C 67.8°F19.9°C 96% Calm Calm 3.0 mph4.8 kmh 29.63 in1003.4 mb 0.00 in0.0 mm 0.00 in0.0 mm 0.04 in1.0 mm
07:15 AM 69.1°F20.6°C 67.9°F19.9°C 96% 1.0 mph S1.6 kmh S 3.0 mph4.8 kmh 29.63 in1003.4 mb 0.00 in0.0 mm 0.00 in0.0 mm 0.04 in1.0 mm
07:30 AM 69.1°F20.6°C 67.9°F19.9°C 96% Calm Calm 1.0 mph1.6 kmh 29.63 in1003.4 mb 0.00 in0.0 mm 0.00 in0.0 mm 0.04 in1.0 mm
07:45 AM 69.1°F20.6°C 67.9°F19.9°C 96% Calm Calm 2.0 mph3.2 kmh 29.62 in1003.0 mb 0.00 in0.0 mm 0.00 in0.0 mm 0.04 in1.0 mm
08:00 AM 69.0°F20.6°C 67.8°F19.9°C 96% Calm Calm 1.0 mph1.6 kmh 29.62 in1003.0 mb 0.00 in0.0 mm 0.00 in0.0 mm 0.04 in1.0 mm
08:15 AM 69.0°F20.6°C 67.8°F19.9°C 96% Calm Calm 4.0 mph6.4 kmh 29.61 in1002.7 mb 0.06 in1.5 mm 0.24 in6.1 mm 0.10 in2.5 mm
08:30 AM 68.9°F20.5°C 67.7°F19.8°C 96% Calm Calm 1.0 mph1.6 kmh 29.62 in1003.0 mb 0.08 in2.0 mm 0.08 in2.0 mm 0.12 in3.0 mm
08:45 AM 68.8°F20.4°C 67.6°F19.8°C 96% Calm Calm 1.0 mph1.6 kmh 29.61 in1002.7 mb 0.12 in3.0 mm 0.16 in4.1 mm 0.16 in4.1 mm
09:00 AM 68.9°F20.5°C 67.7°F19.8°C 96% Calm Calm -- 29.60 in1002.4 mb 0.13 in3.3 mm 0.01 in0.3 mm 0.17 in4.3 mm
09:15 AM 68.9°F20.5°C 67.7°F19.8°C 96% Calm Calm 3.0 mph4.8 kmh 29.60 in1002.4 mb 0.18 in4.6 mm 0.20 in5.1 mm 0.22 in5.6 mm
09:30 AM 68.9°F20.5°C 67.7°F19.8°C 96% Calm Calm -- 29.60 in1002.4 mb 0.13 in3.3 mm 0.00 in0.0 mm 0.22 in5.6 mm
09:45 AM 68.9°F20.5°C 67.7°F19.8°C 96% 1.0 mph SSE1.6 kmh SSE 2.0 mph3.2 kmh 29.59 in1002.0 mb 0.13 in3.3 mm 0.00 in0.0 mm 0.22 in5.6 mm
10:00 AM 68.7°F20.4°C 67.5°F19.7°C 96% 1.0 mph SSE1.6 kmh SSE 1.0 mph1.6 kmh 29.59 in1002.0 mb 0.22 in5.6 mm 0.12 in3.0 mm 0.31 in7.9 mm
10:15 AM 68.6°F20.3°C 67.4°F19.7°C 96% Calm Calm 3.0 mph4.8 kmh 29.58 in1001.7 mb 0.37 in9.4 mm 0.60 in15.2 mm 0.46 in11.7 mm
10:30 AM 68.7°F20.4°C 67.5°F19.7°C 96% Calm Calm -- 29.57 in1001.4 mb 0.32 in8.1 mm 0.00 in0.0 mm 0.46 in11.7 mm
10:45 AM 68.7°F20.4°C 67.8°F19.9°C 97% Calm Calm 2.0 mph3.2 kmh 29.57 in1001.4 mb 0.33 in8.4 mm 0.04 in1.0 mm 0.47 in11.9 mm
11:00 AM 68.8°F20.4°C 67.9°F19.9°C 97% Calm Calm 2.0 mph3.2 kmh 29.56 in1001.0 mb 0.22 in5.6 mm 0.00 in0.0 mm 0.47 in11.9 mm
11:15 AM 68.9°F20.5°C 68.0°F20.0°C 97% 1.0 mph SSW1.6 kmh SSW 3.0 mph4.8 kmh 29.56 in1001.0 mb 0.25 in6.4 mm 0.12 in3.0 mm 0.50 in12.7 mm
11:30 AM 69.1°F20.6°C 68.2°F20.1°C 97% Calm Calm 1.0 mph1.6 kmh 29.55 in1000.7 mb 0.09 in2.3 mm 0.00 in0.0 mm 0.50 in12.7 mm
11:45 AM 69.5°F20.8°C 68.6°F20.3°C 97% 1.0 mph SSW1.6 kmh SSW 3.0 mph4.8 kmh 29.54 in1000.3 mb 0.12 in3.0 mm 0.12 in3.0 mm 0.53 in13.5 mm
12:00 PM 70.2°F21.2°C 69.3°F20.7°C 97% Calm Calm 3.0 mph4.8 kmh 29.53 in1000.0 mb 0.10 in2.5 mm 0.00 in0.0 mm 0.53 in13.5 mm
12:15 PM 70.4°F21.3°C 69.8°F21.0°C 98% Calm Calm 15.0 mph24.1 kmh 29.53 in1000.0 mb 0.11 in2.8 mm 0.04 in1.0 mm 0.54 in13.7 mm
12:30 PM 66.0°F18.9°C 64.2°F17.9°C 94% 6.0 mph W9.7 kmh W 29.0 mph46.7 kmh 29.56 in1001.0 mb 0.07 in1.8 mm 0.00 in0.0 mm 0.54 in13.7 mm
12:45 PM 64.0°F17.8°C 62.2°F16.8°C 94% 7.0 mph NE11.3 kmh NE 29.0 mph46.7 kmh 29.58 in1001.7 mb 0.07 in1.8 mm 0.00 in0.0 mm 0.54 in13.7 mm
01:00 PM 63.9°F17.7°C 62.7°F17.1°C 96% 3.0 mph NE4.8 kmh NE 9.0 mph14.5 kmh 29.58 in1001.7 mb 0.04 in1.0 mm 0.00 in0.0 mm 0.54 in13.7 mm
01:15 PM 64.2°F17.9°C 63.0°F17.2°C 96% 4.0 mph WNW6.4 kmh WNW 15.0 mph24.1 kmh 29.59 in1002.0 mb 0.04 in1.0 mm 0.00 in0.0 mm 0.54 in13.7 mm
01:30 PM 64.8°F18.2°C 63.3°F17.4°C 95% 5.0 mph NE8.0 kmh NE 9.0 mph14.5 kmh 29.60 in1002.4 mb 0.01 in0.3 mm 0.00 in0.0 mm 0.54 in13.7 mm
01:45 PM 65.6°F18.7°C 64.1°F17.8°C 95% 5.0 mph NW8.0 kmh NW 11.0 mph17.7 kmh 29.61 in1002.7 mb 0.01 in0.3 mm 0.00 in0.0 mm 0.54 in13.7 mm
02:00 PM 66.4°F19.1°C 64.0°F17.8°C 92% 2.0 mph W3.2 kmh W 13.0 mph20.9 kmh 29.62 in1003.0 mb 0.00 in0.0 mm 0.00 in0.0 mm 0.54 in13.7 mm
02:15 PM 67.4°F19.7°C 63.7°F17.6°C 88% 5.0 mph W8.0 kmh W 13.0 mph20.9 kmh 29.65 in1004.1 mb 0.00 in0.0 mm 0.00 in0.0 mm 0.54 in13.7 mm
02:30 PM 68.3°F20.2°C 64.0°F17.8°C 86% 4.0 mph NNW6.4 kmh NNW 8.0 mph12.9 kmh 29.67 in1004.7 mb 0.00 in0.0 mm 0.00 in0.0 mm 0.54 in13.7 mm
02:45 PM 68.4°F20.2°C 63.4°F17.4°C 84% 2.0 mph WNW3.2 kmh WNW 8.0 mph12.9 kmh 29.67 in1004.7 mb 0.00 in0.0 mm 0.00 in0.0 mm 0.54 in13.7 mm
03:00 PM 68.2°F20.1°C 63.5°F17.5°C 85% 3.0 mph WNW4.8 kmh WNW 6.0 mph9.7 kmh 29.68 in1005.1 mb 0.00 in0.0 mm 0.00 in0.0 mm 0.54 in13.7 mm
03:15 PM 68.0°F20.0°C 63.7°F17.6°C 86% Calm Calm 8.0 mph12.9 kmh 29.69 in1005.4 mb 0.00 in0.0 mm 0.00 in0.0 mm 0.54 in13.7 mm
03:30 PM 67.6°F19.8°C 62.6°F17.0°C 84% 1.0 mph NW1.6 kmh NW 8.0 mph12.9 kmh 29.69 in1005.4 mb 0.00 in0.0 mm 0.00 in0.0 mm 0.54 in13.7 mm
03:45 PM 67.2°F19.6°C 61.9°F16.6°C 83% 2.0 mph N3.2 kmh N 12.0 mph19.3 kmh 29.70 in1005.8 mb 0.00 in0.0 mm 0.00 in0.0 mm 0.54 in13.7 mm
04:00 PM 67.0°F19.4°C 61.7°F16.5°C 83% 4.0 mph WNW6.4 kmh WNW 8.0 mph12.9 kmh 29.71 in1006.1 mb 0.00 in0.0 mm 0.00 in0.0 mm 0.54 in13.7 mm
04:15 PM 66.7°F19.3°C 61.4°F16.3°C 83% Calm Calm 10.0 mph16.1 kmh 29.72 in1006.4 mb 0.00 in0.0 mm 0.00 in0.0 mm 0.54 in13.7 mm
04:30 PM 66.6°F19.2°C 61.3°F16.3°C 83% 5.0 mph SSW8.0 kmh SSW 8.0 mph12.9 kmh 29.72 in1006.4 mb 0.00 in0.0 mm 0.00 in0.0 mm 0.54 in13.7 mm
04:45 PM 66.9°F19.4°C 61.2°F16.2°C 82% 4.0 mph NNW6.4 kmh NNW 8.0 mph12.9 kmh 29.73 in1006.8 mb 0.00 in0.0 mm 0.00 in0.0 mm 0.54 in13.7 mm
05:00 PM 67.0°F19.4°C 61.3°F16.3°C 82% 1.0 mph WNW1.6 kmh WNW 4.0 mph6.4 kmh 29.74 in1007.1 mb 0.00 in0.0 mm 0.00 in0.0 mm 0.54 in13.7 mm
05:15 PM 67.1°F19.5°C 61.8°F16.6°C 83% Calm Calm 8.0 mph12.9 kmh 29.74 in1007.1 mb 0.00 in0.0 mm 0.00 in0.0 mm 0.54 in13.7 mm
05:30 PM 67.5°F19.7°C 61.8°F16.6°C 82% 1.0 mph NW1.6 kmh NW 6.0 mph9.7 kmh 29.74 in1007.1 mb 0.00 in0.0 mm 0.00 in0.0 mm 0.54 in13.7 mm
05:45 PM 67.5°F19.7°C 61.5°F16.4°C 81% 2.0 mph WNW3.2 kmh WNW 8.0 mph12.9 kmh 29.74 in1007.1 mb 0.00 in0.0 mm 0.00 in0.0 mm 0.54 in13.7 mm
06:00 PM 67.7°F19.8°C 61.7°F16.5°C 81% 1.0 mph W1.6 kmh W 7.0 mph11.3 kmh 29.74 in1007.1 mb 0.00 in0.0 mm 0.00 in0.0 mm 0.54 in13.7 mm
06:15 PM 68.1°F20.1°C 61.7°F16.5°C 80% Calm Calm 8.0 mph12.9 kmh 29.75 in1007.5 mb 0.00 in0.0 mm 0.00 in0.0 mm 0.54 in13.7 mm
06:30 PM 68.3°F20.2°C 61.5°F16.4°C 79% 4.0 mph WNW6.4 kmh WNW 8.0 mph12.9 kmh 29.75 in1007.5 mb 0.00 in0.0 mm 0.00 in0.0 mm 0.54 in13.7 mm
06:45 PM 68.5°F20.3°C 61.4°F16.3°C 78% Calm Calm 8.0 mph12.9 kmh 29.75 in1007.5 mb 0.00 in0.0 mm 0.00 in0.0 mm 0.54 in13.7 mm
07:00 PM 68.5°F20.3°C 62.1°F16.7°C 80% Calm Calm 4.0 mph6.4 kmh 29.76 in1007.8 mb 0.00 in0.0 mm 0.00 in0.0 mm 0.54 in13.7 mm
07:15 PM 68.5°F20.3°C 61.7°F16.5°C 79% 1.0 mph W1.6 kmh W 4.0 mph6.4 kmh 29.76 in1007.8 mb 0.00 in0.0 mm 0.00 in0.0 mm 0.54 in13.7 mm
07:30 PM 68.5°F20.3°C 62.1°F16.7°C 80% Calm Calm -- 29.76 in1007.8 mb 0.00 in0.0 mm 0.00 in0.0 mm 0.54 in13.7 mm
07:45 PM 68.4°F20.2°C 62.4°F16.9°C 81% Calm Calm 1.0 mph1.6 kmh 29.77 in1008.1 mb 0.00 in0.0 mm 0.00 in0.0 mm 0.54 in13.7 mm
08:00 PM 68.3°F20.2°C 63.3°F17.4°C 84% Calm Calm -- 29.77 in1008.1 mb 0.00 in0.0 mm 0.00 in0.0 mm 0.54 in13.7 mm
08:15 PM 68.0°F20.0°C 63.3°F17.4°C 85% Calm Calm -- 29.77 in1008.1 mb 0.00 in0.0 mm 0.00 in0.0 mm 0.54 in13.7 mm
08:30 PM 67.6°F19.8°C 63.3°F17.4°C 86% Calm Calm -- 29.78 in1008.5 mb 0.00 in0.0 mm 0.00 in0.0 mm 0.54 in13.7 mm
08:45 PM 67.0°F19.4°C 62.7°F17.1°C 86% Calm Calm -- 29.78 in1008.5 mb 0.00 in0.0 mm 0.00 in0.0 mm 0.54 in13.7 mm
09:00 PM 66.2°F19.0°C 61.9°F16.6°C 86% Calm Calm -- 29.78 in1008.5 mb 0.00 in0.0 mm 0.00 in0.0 mm 0.54 in13.7 mm
09:15 PM 65.3°F18.5°C 61.3°F16.3°C 87% Calm Calm -- 29.79 in1008.8 mb 0.00 in0.0 mm 0.00 in0.0 mm 0.54 in13.7 mm
09:30 PM 64.5°F18.1°C 60.6°F15.9°C 87% Calm Calm -- 29.80 in1009.1 mb 0.00 in0.0 mm 0.00 in0.0 mm 0.54 in13.7 mm
09:45 PM 63.9°F17.7°C 60.3°F15.7°C 88% Calm Calm -- 29.80 in1009.1 mb 0.00 in0.0 mm 0.00 in0.0 mm 0.54 in13.7 mm
10:00 PM 63.2°F17.3°C 59.9°F15.5°C 89% Calm Calm -- 29.80 in1009.1 mb 0.00 in0.0 mm 0.00 in0.0 mm 0.54 in13.7 mm
10:15 PM 62.6°F17.0°C 59.3°F15.2°C 89% Calm Calm -- 29.80 in1009.1 mb 0.00 in0.0 mm 0.00 in0.0 mm 0.54 in13.7 mm
10:30 PM 62.2°F16.8°C 59.2°F15.1°C 90% Calm Calm -- 29.80 in1009.1 mb 0.00 in0.0 mm 0.00 in0.0 mm 0.54 in13.7 mm
10:45 PM 61.6°F16.4°C 58.6°F14.8°C 90% Calm Calm -- 29.80 in1009.1 mb 0.00 in0.0 mm 0.00 in0.0 mm 0.54 in13.7 mm
11:00 PM 61.2°F16.2°C 58.6°F14.8°C 91% Calm Calm -- 29.81 in1009.5 mb 0.00 in0.0 mm 0.00 in0.0 mm 0.54 in13.7 mm
11:15 PM 60.9°F16.1°C 58.3°F14.6°C 91% Calm Calm -- 29.81 in1009.5 mb 0.00 in0.0 mm 0.00 in0.0 mm 0.54 in13.7 mm
11:30 PM 60.7°F15.9°C 58.4°F14.7°C 92% Calm Calm -- 29.81 in1009.5 mb 0.00 in0.0 mm 0.00 in0.0 mm 0.54 in13.7 mm
11:45 PM 60.5°F15.8°C 58.5°F14.7°C 93% Calm Calm -- 29.81 in1009.5 mb 0.00 in0.0 mm 0.00 in0.0 mm 0.54 in13.7 mm